sensor_id;sensor_type;location;lat;lon;timestamp;pressure;altitude;pressure_sealevel;temperature;humidity
42671;BME280;28283;55.426;37.756;2023-03-19T00:03:32;100765.97;;;-1.96;44.07
42671;BME280;28283;55.426;37.756;2023-03-19T00:08:33;100765.97;;;-1.96;44.45
42671;BME280;28283;55.426;37.756;2023-03-19T00:13:33;100773.06;;;-1.97;44.19
42671;BME280;28283;55.426;37.756;2023-03-19T00:18:33;100767.94;;;-2.00;44.81
42671;BME280;28283;55.426;37.756;2023-03-19T00:23:34;100754.09;;;-2.03;44.19
42671;BME280;28283;55.426;37.756;2023-03-19T00:28:35;100752.56;;;-2.07;44.85
42671;BME280;28283;55.426;37.756;2023-03-19T00:33:36;100756.19;;;-2.10;44.42
42671;BME280;28283;55.426;37.756;2023-03-19T00:38:37;100746.69;;;-2.13;44.82
42671;BME280;28283;55.426;37.756;2023-03-19T00:43:37;100743.38;;;-2.16;45.04
42671;BME280;28283;55.426;37.756;2023-03-19T00:48:38;100742.53;;;-2.17;44.80
42671;BME280;28283;55.426;37.756;2023-03-19T00:53:39;100734.72;;;-2.18;45.56
42671;BME280;28283;55.426;37.756;2023-03-19T00:58:41;100736.59;;;-2.20;45.02
42671;BME280;28283;55.426;37.756;2023-03-19T01:03:41;100722.66;;;-2.22;45.03
42671;BME280;28283;55.426;37.756;2023-03-19T01:08:42;100724.44;;;-2.23;45.68
42671;BME280;28283;55.426;37.756;2023-03-19T01:13:43;100723.50;;;-2.22;45.78
42671;BME280;28283;55.426;37.756;2023-03-19T01:18:43;100714.66;;;-2.21;45.98
42671;BME280;28283;55.426;37.756;2023-03-19T01:23:44;100715.69;;;-2.23;45.85
42671;BME280;28283;55.426;37.756;2023-03-19T01:28:44;100716.03;;;-2.29;45.46
42671;BME280;28283;55.426;37.756;2023-03-19T01:33:45;100711.25;;;-2.39;45.67
42671;BME280;28283;55.426;37.756;2023-03-19T01:38:45;100714.59;;;-2.51;45.81
42671;BME280;28283;55.426;37.756;2023-03-19T01:43:46;100709.31;;;-2.67;46.33
42671;BME280;28283;55.426;37.756;2023-03-19T01:48:56;100709.59;;;-2.73;46.82
42671;BME280;28283;55.426;37.756;2023-03-19T01:53:59;100702.13;;;-2.81;47.06
42671;BME280;28283;55.426;37.756;2023-03-19T01:59:02;100696.41;;;-2.89;46.85
42671;BME280;28283;55.426;37.756;2023-03-19T02:04:03;100694.19;;;-2.97;46.81
42671;BME280;28283;55.426;37.756;2023-03-19T02:09:05;100697.25;;;-3.04;47.17
42671;BME280;28283;55.426;37.756;2023-03-19T02:14:05;100702.75;;;-3.09;46.77
42671;BME280;28283;55.426;37.756;2023-03-19T02:19:06;100683.63;;;-3.13;46.93
42671;BME280;28283;55.426;37.756;2023-03-19T02:24:11;100691.03;;;-3.19;47.06
42671;BME280;28283;55.426;37.756;2023-03-19T02:29:12;100689.03;;;-3.32;47.66
42671;BME280;28283;55.426;37.756;2023-03-19T02:39:20;100688.13;;;-3.48;47.83
42671;BME280;28283;55.426;37.756;2023-03-19T02:44:21;100690.97;;;-3.53;47.46
42671;BME280;28283;55.426;37.756;2023-03-19T02:49:22;100683.38;;;-3.59;47.32
42671;BME280;28283;55.426;37.756;2023-03-19T02:54:23;100679.97;;;-3.61;47.70
42671;BME280;28283;55.426;37.756;2023-03-19T02:59:24;100673.81;;;-3.60;48.00
42671;BME280;28283;55.426;37.756;2023-03-19T03:04:24;100674.91;;;-3.64;47.65
42671;BME280;28283;55.426;37.756;2023-03-19T03:09:25;100670.56;;;-3.65;47.08
42671;BME280;28283;55.426;37.756;2023-03-19T03:14:26;100676.22;;;-3.73;47.63
42671;BME280;28283;55.426;37.756;2023-03-19T03:19:26;100665.16;;;-3.79;47.80
42671;BME280;28283;55.426;37.756;2023-03-19T03:24:27;100660.22;;;-3.86;47.71
42671;BME280;28283;55.426;37.756;2023-03-19T03:29:27;100672.72;;;-3.91;48.03
42671;BME280;28283;55.426;37.756;2023-03-19T03:34:28;100648.53;;;-3.97;47.99
42671;BME280;28283;55.426;37.756;2023-03-19T03:39:28;100659.25;;;-4.02;48.47
42671;BME280;28283;55.426;37.756;2023-03-19T03:44:29;100663.97;;;-4.09;49.48
42671;BME280;28283;55.426;37.756;2023-03-19T03:49:29;100659.88;;;-4.14;48.53
42671;BME280;28283;55.426;37.756;2023-03-19T03:54:30;100653.81;;;-4.16;48.46
42671;BME280;28283;55.426;37.756;2023-03-19T03:59:31;100656.44;;;-4.16;48.94
42671;BME280;28283;55.426;37.756;2023-03-19T04:04:31;100650.41;;;-4.18;48.71
42671;BME280;28283;55.426;37.756;2023-03-19T04:09:32;100640.78;;;-4.18;48.25
42671;BME280;28283;55.426;37.756;2023-03-19T04:14:33;100638.94;;;-4.16;48.23
42671;BME280;28283;55.426;37.756;2023-03-19T04:19:33;100634.66;;;-4.18;48.66
42671;BME280;28283;55.426;37.756;2023-03-19T04:24:34;100630.44;;;-4.21;49.51
42671;BME280;28283;55.426;37.756;2023-03-19T04:29:35;100621.72;;;-4.22;48.98
42671;BME280;28283;55.426;37.756;2023-03-19T04:34:36;100619.69;;;-4.16;48.69
42671;BME280;28283;55.426;37.756;2023-03-19T04:39:36;100616.63;;;-4.07;49.14
42671;BME280;28283;55.426;37.756;2023-03-19T04:44:37;100604.72;;;-3.97;49.50
42671;BME280;28283;55.426;37.756;2023-03-19T04:49:37;100615.78;;;-3.90;49.42
42671;BME280;28283;55.426;37.756;2023-03-19T04:54:38;100611.06;;;-3.84;49.47
42671;BME280;28283;55.426;37.756;2023-03-19T04:59:38;100609.13;;;-3.80;50.18
42671;BME280;28283;55.426;37.756;2023-03-19T05:04:38;100607.34;;;-3.62;50.17
42671;BME280;28283;55.426;37.756;2023-03-19T05:09:39;100608.75;;;-3.39;49.11
42671;BME280;28283;55.426;37.756;2023-03-19T05:14:42;100606.59;;;-3.15;49.39
42671;BME280;28283;55.426;37.756;2023-03-19T05:19:43;100612.16;;;-2.88;49.71
42671;BME280;28283;55.426;37.756;2023-03-19T05:24:44;100603.13;;;-2.52;48.79
42671;BME280;28283;55.426;37.756;2023-03-19T05:29:47;100600.22;;;-2.15;49.55
42671;BME280;28283;55.426;37.756;2023-03-19T05:34:47;100603.22;;;-1.77;49.07
42671;BME280;28283;55.426;37.756;2023-03-19T05:39:49;100603.44;;;-1.37;49.11
42671;BME280;28283;55.426;37.756;2023-03-19T05:44:49;100592.88;;;-0.93;48.57
42671;BME280;28283;55.426;37.756;2023-03-19T05:49:49;100589.88;;;-0.60;48.76
42671;BME280;28283;55.426;37.756;2023-03-19T05:54:50;100578.16;;;-0.29;48.48
42671;BME280;28283;55.426;37.756;2023-03-19T05:59:50;100566.13;;;0.07;48.19
42671;BME280;28283;55.426;37.756;2023-03-19T06:04:51;100566.53;;;0.27;48.24
42671;BME280;28283;55.426;37.756;2023-03-19T06:09:52;100564.66;;;0.29;48.18
42671;BME280;28283;55.426;37.756;2023-03-19T06:14:52;100563.47;;;0.46;48.32
42671;BME280;28283;55.426;37.756;2023-03-19T06:19:53;100558.59;;;0.65;48.02
42671;BME280;28283;55.426;37.756;2023-03-19T06:24:54;100555.84;;;0.67;48.15
42671;BME280;28283;55.426;37.756;2023-03-19T06:29:54;100555.28;;;0.87;48.12
42671;BME280;28283;55.426;37.756;2023-03-19T06:34:55;100558.22;;;1.08;47.72
42671;BME280;28283;55.426;37.756;2023-03-19T06:39:55;100540.03;;;1.28;47.46
42671;BME280;28283;55.426;37.756;2023-03-19T06:44:56;100538.69;;;1.46;47.78
42671;BME280;28283;55.426;37.756;2023-03-19T06:49:56;100533.66;;;1.55;47.76
42671;BME280;28283;55.426;37.756;2023-03-19T06:54:57;100539.94;;;1.65;47.22
42671;BME280;28283;55.426;37.756;2023-03-19T06:59:58;100530.03;;;1.80;47.75
42671;BME280;28283;55.426;37.756;2023-03-19T07:04:58;100530.78;;;1.93;47.49
42671;BME280;28283;55.426;37.756;2023-03-19T07:09:59;100521.78;;;2.07;47.02
42671;BME280;28283;55.426;37.756;2023-03-19T07:15:00;100524.72;;;2.26;47.05
42671;BME280;28283;55.426;37.756;2023-03-19T07:20:01;100526.75;;;2.23;46.35
42671;BME280;28283;55.426;37.756;2023-03-19T07:25:01;100523.72;;;2.16;46.83
42671;BME280;28283;55.426;37.756;2023-03-19T07:30:02;100519.97;;;2.19;47.22
42671;BME280;28283;55.426;37.756;2023-03-19T07:35:02;100507.34;;;2.34;46.77
42671;BME280;28283;55.426;37.756;2023-03-19T07:40:03;100510.97;;;2.44;46.06
42671;BME280;28283;55.426;37.756;2023-03-19T07:45:04;100508.44;;;2.54;46.00
42671;BME280;28283;55.426;37.756;2023-03-19T07:50:05;100515.56;;;2.53;46.25
42671;BME280;28283;55.426;37.756;2023-03-19T07:55:06;100501.06;;;2.68;45.22
42671;BME280;28283;55.426;37.756;2023-03-19T08:00:07;100501.28;;;2.20;46.49
42671;BME280;28283;55.426;37.756;2023-03-19T08:05:09;100488.78;;;2.34;46.64
42671;BME280;28283;55.426;37.756;2023-03-19T08:10:10;100492.38;;;2.66;46.65
42671;BME280;28283;55.426;37.756;2023-03-19T08:15:11;100491.88;;;2.95;46.50
42671;BME280;28283;55.426;37.756;2023-03-19T08:20:12;100480.25;;;3.08;45.01
42671;BME280;28283;55.426;37.756;2023-03-19T08:25:15;100482.88;;;2.41;46.22
42671;BME280;28283;55.426;37.756;2023-03-19T08:30:15;100482.75;;;2.32;46.67
42671;BME280;28283;55.426;37.756;2023-03-19T08:35:16;100470.31;;;2.66;46.54
42671;BME280;28283;55.426;37.756;2023-03-19T08:40:17;100459.31;;;2.82;45.71
42671;BME280;28283;55.426;37.756;2023-03-19T08:45:17;100453.13;;;2.93;46.27
42671;BME280;28283;55.426;37.756;2023-03-19T08:50:18;100443.91;;;3.08;46.15
42671;BME280;28283;55.426;37.756;2023-03-19T08:55:18;100438.13;;;3.35;46.33
42671;BME280;28283;55.426;37.756;2023-03-19T09:00:19;100441.38;;;3.60;46.16
42671;BME280;28283;55.426;37.756;2023-03-19T09:05:19;100436.72;;;3.73;45.73
42671;BME280;28283;55.426;37.756;2023-03-19T09:10:21;100424.06;;;3.87;45.62
42671;BME280;28283;55.426;37.756;2023-03-19T09:15:21;100424.97;;;3.97;45.77
42671;BME280;28283;55.426;37.756;2023-03-19T09:20:22;100418.84;;;4.06;46.03
42671;BME280;28283;55.426;37.756;2023-03-19T09:25:22;100411.81;;;4.05;45.32
42671;BME280;28283;55.426;37.756;2023-03-19T09:30:23;100410.03;;;4.06;45.46
42671;BME280;28283;55.426;37.756;2023-03-19T09:35:23;100401.63;;;4.10;45.64
42671;BME280;28283;55.426;37.756;2023-03-19T09:40:26;100396.06;;;4.23;45.34
42671;BME280;28283;55.426;37.756;2023-03-19T09:45:27;100396.28;;;4.41;45.42
42671;BME280;28283;55.426;37.756;2023-03-19T09:50:28;100378.69;;;4.59;45.13
42671;BME280;28283;55.426;37.756;2023-03-19T09:55:40;100371.56;;;4.89;45.09
42671;BME280;28283;55.426;37.756;2023-03-19T10:00:43;100363.75;;;5.17;44.05
42671;BME280;28283;55.426;37.756;2023-03-19T10:15:55;100349.59;;;5.73;44.24
42671;BME280;28283;55.426;37.756;2023-03-19T10:21:02;100349.38;;;6.04;43.51
42671;BME280;28283;55.426;37.756;2023-03-19T10:26:07;100339.28;;;6.26;44.38
42671;BME280;28283;55.426;37.756;2023-03-19T10:36:10;100323.25;;;6.54;44.43
42671;BME280;28283;55.426;37.756;2023-03-19T10:41:32;100315.31;;;6.98;43.60
42671;BME280;28283;55.426;37.756;2023-03-19T10:46:40;100316.00;;;7.44;43.34
42671;BME280;28283;55.426;37.756;2023-03-19T10:51:46;100310.75;;;7.60;43.25
42671;BME280;28283;55.426;37.756;2023-03-19T10:56:48;100314.59;;;7.92;43.27
42671;BME280;28283;55.426;37.756;2023-03-19T11:01:48;100305.91;;;8.33;43.11
42671;BME280;28283;55.426;37.756;2023-03-19T11:06:55;100305.19;;;8.65;42.53
42671;BME280;28283;55.426;37.756;2023-03-19T11:17:26;100305.50;;;8.62;42.37
42671;BME280;28283;55.426;37.756;2023-03-19T11:22:32;100297.28;;;8.64;41.82
42671;BME280;28283;55.426;37.756;2023-03-19T11:27:34;100292.09;;;8.62;42.74
42671;BME280;28283;55.426;37.756;2023-03-19T11:37:55;100278.03;;;8.68;41.42
42671;BME280;28283;55.426;37.756;2023-03-19T11:58:54;100262.22;;;9.47;40.31
42671;BME280;28283;55.426;37.756;2023-03-19T12:09:02;100239.84;;;10.42;39.55
42671;BME280;28283;55.426;37.756;2023-03-19T12:14:46;100232.03;;;10.79;37.66
42671;BME280;28283;55.426;37.756;2023-03-19T12:19:40;100223.16;;;10.55;38.09
42671;BME280;28283;55.426;37.756;2023-03-19T12:35:10;100200.75;;;11.60;38.04
42671;BME280;28283;55.426;37.756;2023-03-19T12:45:33;100195.63;;;11.80;37.29
42671;BME280;28283;55.426;37.756;2023-03-19T12:50:35;100186.38;;;10.70;37.97
42671;BME280;28283;55.426;37.756;2023-03-19T12:55:41;100186.88;;;9.97;38.74
42671;BME280;28283;55.426;37.756;2023-03-19T13:00:46;100179.63;;;9.26;38.70
42671;BME280;28283;55.426;37.756;2023-03-19T13:06:00;100170.78;;;8.93;39.58
42671;BME280;28283;55.426;37.756;2023-03-19T13:11:05;100162.28;;;8.81;39.46
42671;BME280;28283;55.426;37.756;2023-03-19T13:21:26;100146.16;;;8.23;39.97
42671;BME280;28283;55.426;37.756;2023-03-19T13:26:27;100139.44;;;8.03;40.32
42671;BME280;28283;55.426;37.756;2023-03-19T13:31:32;100137.22;;;7.82;40.13
42671;BME280;28283;55.426;37.756;2023-03-19T13:36:36;100126.91;;;8.20;38.94
42671;BME280;28283;55.426;37.756;2023-03-19T13:46:41;100113.63;;;7.26;40.70
42671;BME280;28283;55.426;37.756;2023-03-19T13:51:46;100106.25;;;7.20;41.05
42671;BME280;28283;55.426;37.756;2023-03-19T14:02:01;100105.53;;;7.10;41.23
42671;BME280;28283;55.426;37.756;2023-03-19T14:07:10;100102.91;;;7.18;41.02
42671;BME280;28283;55.426;37.756;2023-03-19T14:17:18;100084.31;;;6.74;41.19
42671;BME280;28283;55.426;37.756;2023-03-19T14:27:24;100075.88;;;6.61;41.87
42671;BME280;28283;55.426;37.756;2023-03-19T14:32:28;100071.66;;;6.50;41.87
42671;BME280;28283;55.426;37.756;2023-03-19T14:57:46;100058.28;;;5.88;42.41
42671;BME280;28283;55.426;37.756;2023-03-19T15:02:50;100035.41;;;5.49;43.29
42671;BME280;28283;55.426;37.756;2023-03-19T15:07:55;100066.13;;;5.53;43.06
42671;BME280;28283;55.426;37.756;2023-03-19T15:18:06;100064.34;;;5.26;43.58
42671;BME280;28283;55.426;37.756;2023-03-19T15:23:08;100073.00;;;5.01;43.83
42671;BME280;28283;55.426;37.756;2023-03-19T15:28:10;100068.16;;;4.86;44.04
42671;BME280;28283;55.426;37.756;2023-03-19T15:38:18;100074.00;;;4.62;44.52
42671;BME280;28283;55.426;37.756;2023-03-19T15:43:19;100080.19;;;4.53;44.41
42671;BME280;28283;55.426;37.756;2023-03-19T15:49:05;100073.75;;;4.36;44.80
42671;BME280;28283;55.426;37.756;2023-03-19T15:53:46;100079.13;;;4.26;44.88
42671;BME280;28283;55.426;37.756;2023-03-19T15:58:47;100076.31;;;4.18;44.98
42671;BME280;28283;55.426;37.756;2023-03-19T16:04:13;100075.63;;;4.06;45.13
42671;BME280;28283;55.426;37.756;2023-03-19T16:24:33;100074.06;;;3.45;46.21
42671;BME280;28283;55.426;37.756;2023-03-19T16:29:37;100067.19;;;3.33;46.76
42671;BME280;28283;55.426;37.756;2023-03-19T16:34:40;100069.22;;;3.19;46.37
42671;BME280;28283;55.426;37.756;2023-03-19T16:39:52;100058.72;;;3.08;46.84
42671;BME280;28283;55.426;37.756;2023-03-19T16:44:52;100073.78;;;2.98;47.09
42671;BME280;28283;55.426;37.756;2023-03-19T16:49:53;100072.59;;;2.81;47.55
42671;BME280;28283;55.426;37.756;2023-03-19T16:54:53;100067.84;;;2.75;47.65
42671;BME280;28283;55.426;37.756;2023-03-19T16:59:54;100062.22;;;2.68;48.03
42671;BME280;28283;55.426;37.756;2023-03-19T17:04:55;100065.53;;;2.60;48.21
42671;BME280;28283;55.426;37.756;2023-03-19T17:09:57;100063.41;;;2.54;48.77
42671;BME280;28283;55.426;37.756;2023-03-19T17:14:57;100063.47;;;2.43;49.06
42671;BME280;28283;55.426;37.756;2023-03-19T17:19:58;100061.63;;;2.34;48.96
42671;BME280;28283;55.426;37.756;2023-03-19T17:24:58;100061.03;;;2.30;49.51
42671;BME280;28283;55.426;37.756;2023-03-19T17:29:58;100060.59;;;2.25;49.58
42671;BME280;28283;55.426;37.756;2023-03-19T17:34:59;100055.06;;;2.17;50.11
42671;BME280;28283;55.426;37.756;2023-03-19T17:40:00;100058.25;;;2.10;50.08
42671;BME280;28283;55.426;37.756;2023-03-19T17:45:00;100054.44;;;2.03;50.59
42671;BME280;28283;55.426;37.756;2023-03-19T17:50:00;100053.63;;;1.91;50.79
42671;BME280;28283;55.426;37.756;2023-03-19T17:55:01;100047.56;;;1.80;50.35
42671;BME280;28283;55.426;37.756;2023-03-19T18:00:03;100037.84;;;1.69;50.59
42671;BME280;28283;55.426;37.756;2023-03-19T18:05:09;100037.25;;;1.65;50.78
42671;BME280;28283;55.426;37.756;2023-03-19T18:10:16;100036.09;;;1.58;51.77
42671;BME280;28283;55.426;37.756;2023-03-19T18:15:17;100039.81;;;1.56;51.57
42671;BME280;28283;55.426;37.756;2023-03-19T18:20:19;100024.25;;;1.62;51.43
42671;BME280;28283;55.426;37.756;2023-03-19T18:25:21;100030.09;;;1.45;51.76
42671;BME280;28283;55.426;37.756;2023-03-19T18:30:22;100022.06;;;1.35;51.46
42671;BME280;28283;55.426;37.756;2023-03-19T18:35:29;100022.81;;;1.26;52.08
42671;BME280;28283;55.426;37.756;2023-03-19T18:40:31;100018.59;;;1.23;51.69
42671;BME280;28283;55.426;37.756;2023-03-19T18:45:31;100019.81;;;1.19;51.79
42671;BME280;28283;55.426;37.756;2023-03-19T18:50:32;100017.78;;;1.23;51.42
42671;BME280;28283;55.426;37.756;2023-03-19T18:55:32;100014.88;;;1.26;51.25
42671;BME280;28283;55.426;37.756;2023-03-19T19:00:33;100002.47;;;1.26;51.81
42671;BME280;28283;55.426;37.756;2023-03-19T19:05:34;100010.53;;;1.25;51.39
42671;BME280;28283;55.426;37.756;2023-03-19T19:10:35;100012.59;;;1.21;52.01
42671;BME280;28283;55.426;37.756;2023-03-19T19:15:36;100007.66;;;1.17;52.12
42671;BME280;28283;55.426;37.756;2023-03-19T19:20:37;100010.81;;;1.10;52.11
42671;BME280;28283;55.426;37.756;2023-03-19T19:25:37;100002.53;;;1.04;51.98
42671;BME280;28283;55.426;37.756;2023-03-19T19:30:38;100004.22;;;1.05;52.26
42671;BME280;28283;55.426;37.756;2023-03-19T19:35:38;99996.50;;;1.02;52.84
42671;BME280;28283;55.426;37.756;2023-03-19T19:40:40;99994.69;;;1.02;53.09
42671;BME280;28283;55.426;37.756;2023-03-19T19:45:41;99995.44;;;0.93;53.37
42671;BME280;28283;55.426;37.756;2023-03-19T19:50:43;100003.78;;;0.88;54.04
42671;BME280;28283;55.426;37.756;2023-03-19T19:55:44;100000.88;;;0.80;54.37
42671;BME280;28283;55.426;37.756;2023-03-19T20:00:45;99996.44;;;0.69;54.31
42671;BME280;28283;55.426;37.756;2023-03-19T20:05:46;99999.47;;;0.65;54.72
42671;BME280;28283;55.426;37.756;2023-03-19T20:10:47;99997.06;;;0.62;55.71
42671;BME280;28283;55.426;37.756;2023-03-19T20:15:48;100002.69;;;0.46;56.44
42671;BME280;28283;55.426;37.756;2023-03-19T20:20:49;99996.44;;;0.35;56.69
42671;BME280;28283;55.426;37.756;2023-03-19T20:25:50;99993.56;;;0.27;56.97
42671;BME280;28283;55.426;37.756;2023-03-19T20:30:51;99994.13;;;0.19;57.25
42671;BME280;28283;55.426;37.756;2023-03-19T20:35:55;99993.31;;;0.19;57.42
42671;BME280;28283;55.426;37.756;2023-03-19T20:40:56;99997.66;;;0.20;58.10
42671;BME280;28283;55.426;37.756;2023-03-19T20:46:01;99996.31;;;0.14;58.36
42671;BME280;28283;55.426;37.756;2023-03-19T20:51:03;99993.53;;;0.16;58.65
42671;BME280;28283;55.426;37.756;2023-03-19T20:56:05;99992.81;;;0.14;58.57
42671;BME280;28283;55.426;37.756;2023-03-19T21:01:05;100003.06;;;0.18;58.90
42671;BME280;28283;55.426;37.756;2023-03-19T21:06:11;99994.75;;;0.23;58.67
42671;BME280;28283;55.426;37.756;2023-03-19T21:11:15;99952.22;;;0.04;58.25
42671;BME280;28283;55.426;37.756;2023-03-19T21:16:17;99992.72;;;0.27;58.77
42671;BME280;28283;55.426;37.756;2023-03-19T21:21:21;99992.47;;;0.07;59.03
42671;BME280;28283;55.426;37.756;2023-03-19T21:26:23;99990.25;;;-0.10;59.41
42671;BME280;28283;55.426;37.756;2023-03-19T21:31:24;99967.03;;;-0.18;59.63
42671;BME280;28283;55.426;37.756;2023-03-19T21:36:26;99972.09;;;-0.26;59.93
42671;BME280;28283;55.426;37.756;2023-03-19T21:41:27;99976.88;;;-0.31;60.63
42671;BME280;28283;55.426;37.756;2023-03-19T21:46:34;99973.00;;;-0.39;60.87
42671;BME280;28283;55.426;37.756;2023-03-19T21:51:35;99972.50;;;-0.44;61.03
42671;BME280;28283;55.426;37.756;2023-03-19T21:56:37;99975.63;;;-0.50;61.99
42671;BME280;28283;55.426;37.756;2023-03-19T22:01:38;99970.28;;;-0.61;61.96
42671;BME280;28283;55.426;37.756;2023-03-19T22:06:39;99963.16;;;-0.72;62.32
42671;BME280;28283;55.426;37.756;2023-03-19T22:11:40;99958.84;;;-0.73;62.51
42671;BME280;28283;55.426;37.756;2023-03-19T22:16:41;99962.91;;;-0.80;62.74
42671;BME280;28283;55.426;37.756;2023-03-19T22:21:44;99961.97;;;-0.92;62.64
42671;BME280;28283;55.426;37.756;2023-03-19T22:26:44;99956.09;;;-0.96;62.55
42671;BME280;28283;55.426;37.756;2023-03-19T22:31:49;99962.34;;;-0.97;62.57
42671;BME280;28283;55.426;37.756;2023-03-19T22:36:50;99959.91;;;-1.00;62.54
42671;BME280;28283;55.426;37.756;2023-03-19T22:41:50;99955.88;;;-0.92;62.75
42671;BME280;28283;55.426;37.756;2023-03-19T22:46:51;99946.56;;;-0.85;62.95
42671;BME280;28283;55.426;37.756;2023-03-19T22:51:52;99936.09;;;-0.87;62.87
42671;BME280;28283;55.426;37.756;2023-03-19T22:56:52;99933.25;;;-0.84;63.29
42671;BME280;28283;55.426;37.756;2023-03-19T23:01:52;99932.88;;;-0.79;62.58
42671;BME280;28283;55.426;37.756;2023-03-19T23:06:53;99932.56;;;-0.74;62.76
42671;BME280;28283;55.426;37.756;2023-03-19T23:11:54;99933.84;;;-0.80;63.15
42671;BME280;28283;55.426;37.756;2023-03-19T23:16:57;99940.78;;;-0.55;63.53
42671;BME280;28283;55.426;37.756;2023-03-19T23:21:59;99924.69;;;-1.11;63.13
42671;BME280;28283;55.426;37.756;2023-03-19T23:27:00;99923.47;;;-1.19;63.50
42671;BME280;28283;55.426;37.756;2023-03-19T23:32:01;99920.81;;;-1.19;63.75
42671;BME280;28283;55.426;37.756;2023-03-19T23:37:02;99922.63;;;-1.19;63.57
42671;BME280;28283;55.426;37.756;2023-03-19T23:42:02;99918.66;;;-1.25;63.46
42671;BME280;28283;55.426;37.756;2023-03-19T23:47:03;99917.41;;;-1.32;63.72
42671;BME280;28283;55.426;37.756;2023-03-19T23:52:03;99921.84;;;-1.32;63.82
42671;BME280;28283;55.426;37.756;2023-03-19T23:57:05;99913.63;;;-1.41;64.10
